Time;durP1;ratioP1;P1;durP2;ratioP2;P2;SDS_P1;SDS_P2;PMS_P1;PMS_P2;Temp;Humidity;BMP_temperature;BMP_pressure;BME280_temperature;BME280_humidity;BME280_pressure;Samples;Min_cycle;Max_cycle;Signal;HPM_P1;HPM_P2
2022/07/03 00:00:20;;;;;;;6.88;5.78;;;;;;;23.00;81.42;98599.19;5015996;28;20190;-58
2022/07/03 00:02:46;;;;;;;5.30;4.90;;;;;;;23.03;80.58;98601.47;5018199;28;20881;-58
2022/07/03 00:05:11;;;;;;;6.32;5.25;;;;;;;23.10;80.78;98602.41;5015008;28;20202;-58
2022/07/03 00:07:40;;;;;;;5.60;5.00;;;;;;;23.07;80.26;98592.22;5023871;28;21104;-58
2022/07/03 00:10:06;;;;;;;6.35;5.47;;;;;;;23.04;80.88;98606.59;5015116;28;20248;-59
2022/07/03 00:12:32;;;;;;;5.93;5.43;;;;;;;23.07;80.88;98610.69;5011747;28;20186;-59
2022/07/03 00:14:57;;;;;;;5.38;4.88;;;;;;;23.05;80.01;98610.88;5012158;28;20182;-59
2022/07/03 00:17:23;;;;;;;7.15;4.93;;;;;;;22.96;79.55;98611.91;5026530;28;20185;-59
2022/07/03 00:19:48;;;;;;;5.28;4.78;;;;;;;23.06;79.77;98611.66;5014736;28;20189;-59
2022/07/03 00:22:14;;;;;;;4.72;4.40;;;;;;;23.18;79.08;98615.56;5016651;28;20173;-58
2022/07/03 00:25:02;;;;;;;4.80;4.40;;;;;;;23.07;78.52;98615.97;5018935;28;20205;-58
2022/07/03 00:27:28;;;;;;;7.50;5.05;;;;;;;23.17;77.73;98613.91;5014292;28;20182;-58
2022/07/03 00:29:58;;;;;;;5.03;4.57;;;;;;;23.09;78.20;98613.97;5017001;28;20197;-58
2022/07/03 00:32:25;;;;;;;5.10;4.60;;;;;;;22.97;78.65;98602.19;5015632;28;20261;-58
2022/07/03 00:34:53;;;;;;;6.45;5.07;;;;;;;22.90;79.40;98606.56;5015590;28;20240;-58
2022/07/03 00:37:19;;;;;;;5.50;5.00;;;;;;;23.01;78.68;98598.22;5023240;28;20654;-58
2022/07/03 00:39:45;;;;;;;6.43;4.93;;;;;;;22.95;78.86;98586.53;5018148;28;20184;-58
2022/07/03 00:42:12;;;;;;;5.10;4.60;;;;;;;22.80;79.72;98590.13;5015565;28;20308;-58
2022/07/03 00:44:52;;;;;;;5.22;4.72;;;;;;;22.93;78.76;98585.06;5017425;28;20209;-58
2022/07/03 00:47:21;;;;;;;7.70;4.50;;;;;;;23.02;77.69;98576.09;5022757;28;20213;-58
2022/07/03 00:49:51;;;;;;;4.90;4.50;;;;;;;23.19;76.23;98585.53;5020322;28;20192;-58
2022/07/03 00:52:18;;;;;;;5.28;4.88;;;;;;;23.10;76.42;98581.28;5008277;28;20304;-58
2022/07/03 00:54:50;;;;;;;7.18;4.78;;;;;;;22.89;77.74;98578.53;5014961;28;20252;-58
2022/07/03 00:57:17;;;;;;;4.93;4.53;;;;;;;22.70;78.79;98577.19;5011700;28;20175;-58
2022/07/03 00:59:43;;;;;;;5.75;5.15;;;;;;;22.78;78.29;98577.13;5014103;28;20682;-58
2022/07/03 01:02:19;;;;;;;4.90;4.47;;;;;;;22.89;78.13;98578.53;5019542;28;20217;-58
2022/07/03 01:04:50;;;;;;;8.77;5.30;;;;;;;22.92;77.75;98576.34;5020381;28;20318;-58
2022/07/03 01:07:33;;;;;;;6.25;5.47;;;;;;;22.87;77.63;98570.78;5024293;28;20247;-58
2022/07/03 01:10:12;;;;;;;5.45;4.95;;;;;;;22.69;78.88;98561.53;5020859;28;20209;-58
2022/07/03 01:13:03;;;;;;;6.45;5.25;;;;;;;22.62;78.96;98560.59;5018817;28;20191;-58
2022/07/03 01:15:47;;;;;;;5.25;4.85;;;;;;;22.63;80.02;98562.22;5024997;28;20182;-58
2022/07/03 01:18:37;;;;;;;6.43;5.20;;;;;;;22.65;80.00;98562.88;5019765;28;20193;-58
2022/07/03 01:21:08;;;;;;;5.10;4.63;;;;;;;22.53;80.07;98556.38;5014062;28;20189;-58
2022/07/03 01:24:18;;;;;;;4.88;4.50;;;;;;;22.53;79.18;98565.13;5020624;28;20216;-58
2022/07/03 01:26:46;;;;;;;5.40;4.60;;;;;;;22.40;79.83;98574.56;5021133;28;20247;-58
2022/07/03 01:29:22;;;;;;;5.22;4.70;;;;;;;22.15;81.68;98571.25;5013678;28;21136;-58
2022/07/03 01:31:49;;;;;;;5.32;4.88;;;;;;;22.02;82.68;98573.63;5023268;28;20316;-58
2022/07/03 01:34:18;;;;;;;4.97;4.68;;;;;;;22.11;81.95;98569.13;5018758;28;20265;-58
2022/07/03 01:36:48;;;;;;;4.80;4.40;;;;;;;22.29;81.37;98569.69;5015913;28;20569;-58
2022/07/03 01:39:17;;;;;;;5.57;4.53;;;;;;;22.41;79.55;98570.94;5019018;28;20186;-58
2022/07/03 01:41:45;;;;;;;5.55;5.03;;;;;;;22.44;80.73;98570.63;5023803;28;20182;-58
2022/07/03 01:44:13;;;;;;;4.95;4.55;;;;;;;22.38;80.32;98566.03;5021628;28;20776;-58
2022/07/03 01:46:41;;;;;;;5.20;4.70;;;;;;;22.10;80.62;98562.22;5019699;28;20212;-58
2022/07/03 01:49:08;;;;;;;4.97;4.63;;;;;;;22.11;82.01;98566.50;5022532;28;20224;-58
2022/07/03 01:51:34;;;;;;;5.68;4.75;;;;;;;22.16;81.05;98569.44;5022766;28;20190;-58
2022/07/03 01:54:02;;;;;;;5.47;4.95;;;;;;;22.22;80.97;98571.38;5018880;28;20282;-58
2022/07/03 01:56:31;;;;;;;5.70;5.30;;;;;;;22.24;81.51;98566.75;5020314;28;20201;-58
2022/07/03 01:58:59;;;;;;;5.57;5.00;;;;;;;21.96;81.63;98557.72;5025436;28;20192;-58
2022/07/03 02:01:46;;;;;;;5.30;4.82;;;;;;;21.77;84.84;98563.38;5016338;28;20238;-57
2022/07/03 02:04:11;;;;;;;5.97;4.78;;;;;;;21.74;84.22;98553.19;5024493;28;20267;-58
2022/07/03 02:06:42;;;;;;;5.90;5.45;;;;;;;21.91;82.99;98565.31;5018196;28;20612;-58
2022/07/03 02:09:10;;;;;;;6.03;5.38;;;;;;;22.01;82.08;98572.00;5019016;28;20192;-58
2022/07/03 02:11:43;;;;;;;5.97;5.47;;;;;;;22.01;81.60;98557.97;5022177;28;20670;-58
2022/07/03 02:14:14;;;;;;;5.63;5.13;;;;;;;21.97;82.50;98570.69;5026762;28;20232;-58
2022/07/03 02:17:01;;;;;;;5.78;5.13;;;;;;;21.96;82.32;98570.88;5021555;28;20196;-58
2022/07/03 02:19:41;;;;;;;6.85;4.63;;;;;;;22.02;79.98;98572.84;5024493;28;20201;-58
2022/07/03 02:22:08;;;;;;;5.13;4.72;;;;;;;21.98;80.38;98566.25;5018713;28;20811;-58
2022/07/03 02:24:42;;;;;;;5.15;4.75;;;;;;;21.99;79.75;98566.09;5025036;28;20202;-58
2022/07/03 02:27:12;;;;;;;6.70;5.28;;;;;;;21.96;80.83;98557.72;4999323;28;20193;-58
2022/07/03 02:29:47;;;;;;;6.00;5.50;;;;;;;21.89;82.67;98564.63;5019314;28;20189;-58
2022/07/03 02:32:22;;;;;;;5.60;5.20;;;;;;;21.77;83.39;98556.31;5018269;28;20670;-58
2022/07/03 02:35:10;;;;;;;5.68;5.22;;;;;;;21.75;83.08;98565.38;5017539;28;20173;-58
2022/07/03 02:37:51;;;;;;;5.95;4.97;;;;;;;21.77;82.88;98568.66;5023631;28;20182;-58
2022/07/03 02:40:42;;;;;;;5.22;4.72;;;;;;;21.81;81.20;98570.78;5022511;28;20177;-58
2022/07/03 02:43:16;;;;;;;5.40;4.88;;;;;;;21.86;79.96;98578.97;5024015;28;20261;-58
2022/07/03 02:46:48;;;;;;;5.28;4.88;;;;;;;21.82;78.81;98580.34;5022453;28;20206;-58
2022/07/03 02:49:25;;;;;;;6.43;4.93;;;;;;;21.77;79.00;98563.38;5017828;28;20185;-58
2022/07/03 02:52:13;;;;;;;6.32;5.75;;;;;;;21.86;79.05;98584.25;5000033;28;20205;-58
2022/07/03 02:54:46;;;;;;;5.78;5.28;;;;;;;21.95;77.46;98582.41;5019742;28;20182;-58
2022/07/03 02:57:13;;;;;;;5.25;4.80;;;;;;;21.88;77.13;98582.28;5016370;28;20185;-58
2022/07/03 02:59:56;;;;;;;8.10;5.75;;;;;;;21.94;76.89;98586.03;5026568;28;20185;-58
2022/07/03 03:02:39;;;;;;;5.82;5.28;;;;;;;22.00;75.28;98580.06;5008723;28;20237;-58
2022/07/03 03:05:29;;;;;;;5.50;5.00;;;;;;;22.00;74.96;98575.63;5019364;28;20206;-58
2022/07/03 03:08:23;;;;;;;4.93;4.53;;;;;;;22.02;75.33;98580.75;5014726;28;20194;-58
2022/07/03 03:10:50;;;;;;;4.90;4.60;;;;;;;21.84;75.57;98577.50;5017878;28;20267;-58
2022/07/03 03:13:19;;;;;;;9.65;5.50;;;;;;;21.97;75.98;98575.97;5020887;28;20196;-58
2022/07/03 03:15:53;;;;;;;5.50;5.00;;;;;;;21.93;76.42;98568.59;5022298;28;20182;-58
2022/07/03 03:18:22;;;;;;;5.05;4.57;;;;;;;21.99;74.88;98562.63;5021512;28;20182;-58
2022/07/03 03:20:50;;;;;;;5.88;4.57;;;;;;;22.06;73.40;98561.75;5016240;28;20573;-58
2022/07/03 03:23:28;;;;;;;5.28;4.78;;;;;;;22.16;72.53;98575.56;5012204;28;20288;-58
2022/07/03 03:25:53;;;;;;;4.85;4.45;;;;;;;22.22;71.61;98569.59;5020936;28;20220;-58
2022/07/03 03:28:19;;;;;;;4.75;4.32;;;;;;;22.26;69.77;98575.31;5018414;28;20194;-58
2022/07/03 03:30:45;;;;;;;6.75;5.10;;;;;;;22.27;70.33;98567.22;5016922;28;20194;-59
2022/07/03 03:33:12;;;;;;;5.00;4.68;;;;;;;22.39;72.66;98568.50;5018327;28;20419;-58
2022/07/03 03:35:38;;;;;;;5.93;4.93;;;;;;;22.47;72.84;98579.00;5023187;28;20206;-58
2022/07/03 03:38:04;;;;;;;4.63;4.22;;;;;;;22.50;72.02;98575.19;5018996;28;20590;-58
2022/07/03 03:40:32;;;;;;;5.20;4.70;;;;;;;22.54;72.43;98568.56;5023453;28;20188;-59
2022/07/03 03:42:57;;;;;;;4.63;4.22;;;;;;;22.56;71.67;98570.03;5022661;28;20221;-58
2022/07/03 03:45:22;;;;;;;7.20;5.40;;;;;;;22.54;72.64;98571.19;5016903;28;20740;-58
2022/07/03 03:47:48;;;;;;;6.60;4.97;;;;;;;22.45;72.69;98573.09;5016001;28;20590;-58
2022/07/03 03:50:13;;;;;;;5.22;4.82;;;;;;;22.58;72.33;98569.84;5013932;28;20667;-58
2022/07/03 03:52:39;;;;;;;6.18;4.57;;;;;;;22.57;72.34;98565.56;5017109;28;20242;-58
2022/07/03 03:55:06;;;;;;;5.80;5.22;;;;;;;22.70;72.18;98568.44;5019293;28;20201;-58
2022/07/03 03:57:31;;;;;;;5.18;4.68;;;;;;;22.67;72.86;98563.53;5020964;28;20186;-58
2022/07/03 03:59:57;;;;;;;6.05;5.43;;;;;;;22.80;72.52;98569.03;5019282;28;20196;-59
2022/07/03 04:02:22;;;;;;;5.22;4.75;;;;;;;22.74;72.76;98559.19;5017484;28;20271;-58
2022/07/03 04:04:48;;;;;;;5.50;4.95;;;;;;;22.81;72.73;98565.38;5015143;28;20269;-59
2022/07/03 04:07:13;;;;;;;6.07;5.45;;;;;;;22.92;71.81;98563.16;5018638;28;20208;-59
2022/07/03 04:09:39;;;;;;;5.30;4.80;;;;;;;22.97;70.42;98565.25;5013148;28;20691;-59
2022/07/03 04:12:05;;;;;;;5.20;4.72;;;;;;;22.98;70.75;98562.44;4998231;28;20186;-59
2022/07/03 04:14:30;;;;;;;5.13;4.72;;;;;;;23.08;70.52;98578.03;5012633;28;21023;-59
2022/07/03 04:16:56;;;;;;;5.25;4.82;;;;;;;23.15;70.55;98571.84;5005710;28;20186;-58
2022/07/03 04:19:22;;;;;;;6.00;5.22;;;;;;;23.17;70.34;98582.22;5021998;28;20285;-59
2022/07/03 04:21:49;;;;;;;6.03;5.53;;;;;;;23.22;69.67;98574.59;5015757;28;20244;-59
2022/07/03 04:24:14;;;;;;;5.30;4.90;;;;;;;23.17;69.66;98577.78;5018727;28;20785;-59
2022/07/03 04:26:40;;;;;;;4.95;4.55;;;;;;;23.22;69.93;98579.88;5029832;28;20284;-59
2022/07/03 04:29:05;;;;;;;5.32;4.90;;;;;;;23.18;69.58;98578.59;5020202;28;20178;-57
2022/07/03 04:31:30;;;;;;;5.63;5.03;;;;;;;23.27;69.44;98581.00;5009225;28;20687;-58
2022/07/03 04:33:56;;;;;;;5.75;4.93;;;;;;;23.32;69.26;98577.81;4996382;28;20185;-59
2022/07/03 04:36:21;;;;;;;6.55;4.65;;;;;;;23.37;68.75;98584.19;4998261;28;20855;-58
2022/07/03 04:38:46;;;;;;;4.80;4.25;;;;;;;23.39;68.67;98584.00;5012874;28;20209;-59
2022/07/03 04:41:12;;;;;;;8.07;5.25;;;;;;;23.54;67.63;98584.84;5012030;28;20185;-59
2022/07/03 04:43:37;;;;;;;5.07;4.18;;;;;;;23.63;67.47;98587.22;5022221;28;20194;-59
2022/07/03 04:46:03;;;;;;;5.40;4.93;;;;;;;23.62;67.72;98592.66;5016400;28;20654;-58
2022/07/03 04:48:29;;;;;;;5.13;4.78;;;;;;;23.68;67.13;98588.28;5009891;28;20186;-59
2022/07/03 04:50:55;;;;;;;5.55;4.72;;;;;;;23.78;67.44;98595.94;5016961;28;20423;-59
2022/07/03 04:53:20;;;;;;;5.22;4.75;;;;;;;23.91;67.47;98587.38;5014648;28;20196;-59
2022/07/03 04:55:46;;;;;;;5.40;4.95;;;;;;;23.98;67.17;98590.94;5016126;28;20170;-59
2022/07/03 04:58:11;;;;;;;4.93;4.18;;;;;;;24.09;66.24;98592.09;5017258;28;20204;-59
2022/07/03 05:00:37;;;;;;;5.55;4.47;;;;;;;24.13;65.75;98590.72;5020389;28;20565;-58
2022/07/03 05:03:02;;;;;;;4.82;4.45;;;;;;;24.20;65.28;98588.97;5025075;28;20198;-59
2022/07/03 05:05:28;;;;;;;4.75;4.35;;;;;;;24.34;64.82;98589.94;5016350;28;20701;-59
2022/07/03 05:07:53;;;;;;;5.57;4.47;;;;;;;24.41;64.76;98591.66;5019057;28;20277;-59
2022/07/03 05:10:19;;;;;;;4.97;4.57;;;;;;;24.33;64.35;98583.81;5018127;28;20197;-59
2022/07/03 05:12:44;;;;;;;4.70;4.30;;;;;;;24.40;64.96;98582.09;5010405;28;20186;-60
2022/07/03 05:15:10;;;;;;;6.10;5.35;;;;;;;24.49;63.80;98577.50;4997813;28;20706;-60
2022/07/03 05:17:35;;;;;;;5.50;4.78;;;;;;;24.58;63.74;98579.84;5008417;28;20191;-58
2022/07/03 05:22:47;;;;;;;5.68;5.10;;;;;;;24.76;63.30;98590.00;5014797;28;20229;-57
2022/07/03 05:25:12;;;;;;;5.13;4.72;;;;;;;24.78;62.76;98594.09;5007171;28;20213;-58
2022/07/03 05:27:38;;;;;;;5.95;4.75;;;;;;;24.87;62.60;98592.97;5021163;28;20691;-58
2022/07/03 05:30:04;;;;;;;6.20;5.13;;;;;;;24.89;62.74;98595.41;5016196;28;20186;-58
2022/07/03 05:32:30;;;;;;;4.97;4.57;;;;;;;24.98;62.86;98595.09;5014620;28;20277;-59
2022/07/03 05:34:55;;;;;;;6.63;4.93;;;;;;;25.00;61.98;98601.00;5020623;28;20304;-59
2022/07/03 05:37:21;;;;;;;5.30;4.85;;;;;;;25.00;61.63;98603.66;5015340;28;20678;-59
2022/07/03 05:39:46;;;;;;;4.90;4.50;;;;;;;25.04;61.95;98607.56;5017325;28;20178;-59
2022/07/03 05:42:11;;;;;;;5.20;4.72;;;;;;;25.05;61.85;98595.97;5013258;28;20276;-59
2022/07/03 05:44:37;;;;;;;6.28;4.68;;;;;;;25.09;61.62;98607.78;5016662;28;20206;-59
2022/07/03 05:47:02;;;;;;;6.50;4.13;;;;;;;25.15;61.10;98612.34;5020406;28;20190;-59
2022/07/03 05:49:28;;;;;;;5.22;4.70;;;;;;;25.23;61.33;98614.84;5019080;28;20189;-59
2022/07/03 05:51:53;;;;;;;5.20;4.45;;;;;;;25.30;60.69;98610.44;5024085;28;20185;-59
2022/07/03 05:54:18;;;;;;;4.88;4.47;;;;;;;25.43;60.46;98605.22;5015923;28;20204;-59
2022/07/03 05:56:44;;;;;;;5.93;4.53;;;;;;;25.56;59.43;98605.34;5005278;28;20201;-59
2022/07/03 05:59:09;;;;;;;5.03;4.40;;;;;;;25.70;58.74;98608.88;4999833;28;20182;-59
2022/07/03 06:01:35;;;;;;;5.07;4.68;;;;;;;25.78;59.40;98614.81;5021936;28;20773;-59
2022/07/03 06:04:00;;;;;;;4.90;4.50;;;;;;;25.91;59.39;98609.66;5010734;28;20347;-59
2022/07/03 06:06:26;;;;;;;5.10;4.65;;;;;;;25.97;58.78;98595.59;5027350;28;20565;-59
2022/07/03 06:08:52;;;;;;;4.28;3.97;;;;;;;26.10;59.12;98602.78;5019503;28;20228;-59
2022/07/03 06:11:17;;;;;;;5.15;4.47;;;;;;;26.07;59.60;98592.56;5026925;28;20190;-59
2022/07/03 06:13:42;;;;;;;5.22;4.22;;;;;;;26.13;59.59;98597.88;5022952;28;20193;-59
2022/07/03 06:16:08;;;;;;;5.10;4.70;;;;;;;26.29;59.10;98600.19;5027812;28;20246;-59
2022/07/03 06:18:33;;;;;;;4.88;4.38;;;;;;;26.42;59.33;98591.47;5018553;28;20741;-59
2022/07/03 06:20:59;;;;;;;4.90;4.38;;;;;;;26.55;58.31;98594.16;5019497;28;20826;-59
2022/07/03 06:23:24;;;;;;;4.40;4.00;;;;;;;26.55;57.62;98597.66;5025115;28;20181;-59
2022/07/03 06:25:49;;;;;;;4.50;4.20;;;;;;;26.62;57.00;98587.88;5016701;28;20259;-59
2022/07/03 06:28:15;;;;;;;4.18;3.88;;;;;;;26.77;56.46;98599.09;5021197;28;20186;-59
2022/07/03 06:30:40;;;;;;;4.78;4.35;;;;;;;26.81;56.50;98594.19;5010024;28;20598;-60
2022/07/03 06:33:06;;;;;;;4.45;4.20;;;;;;;26.85;57.35;98593.63;5013598;28;20182;-59
2022/07/03 06:35:31;;;;;;;4.80;4.40;;;;;;;26.88;56.82;98598.50;5025199;28;20190;-59
2022/07/03 06:38:01;;;;;;;5.00;4.50;;;;;;;26.92;57.18;98605.06;5018496;28;20187;-59
2022/07/03 06:40:27;;;;;;;5.15;4.70;;;;;;;27.03;56.55;98606.28;5018277;28;20189;-59
2022/07/03 06:42:52;;;;;;;4.57;4.18;;;;;;;27.12;55.57;98599.75;5019945;28;21028;-59
2022/07/03 06:45:17;;;;;;;4.63;4.32;;;;;;;27.03;56.58;98599.13;5018682;28;20592;-59
2022/07/03 06:47:43;;;;;;;4.32;4.00;;;;;;;27.06;56.92;98601.38;5019584;28;21182;-59
2022/07/03 06:50:08;;;;;;;5.75;5.25;;;;;;;27.18;57.39;98596.31;5014519;28;20226;-59
2022/07/03 06:52:34;;;;;;;7.03;5.60;;;;;;;27.26;58.11;98591.59;5018824;28;21124;-59
2022/07/03 06:55:00;;;;;;;6.25;5.47;;;;;;;27.45;58.04;98595.22;5023053;28;20719;-59
2022/07/03 06:57:25;;;;;;;7.35;5.32;;;;;;;27.52;58.39;98594.19;5017682;28;20189;-59
2022/07/03 06:59:50;;;;;;;5.72;5.25;;;;;;;27.60;57.30;98594.00;5015311;28;20185;-59
2022/07/03 07:02:16;;;;;;;7.10;6.00;;;;;;;27.74;56.42;98590.28;5018162;28;20275;-60
2022/07/03 07:04:42;;;;;;;6.15;5.57;;;;;;;27.89;55.96;98590.88;5019312;28;20224;-59
2022/07/03 07:07:07;;;;;;;7.20;4.57;;;;;;;27.90;55.55;98584.53;5012733;28;20282;-57
2022/07/03 07:09:33;;;;;;;5.47;5.00;;;;;;;27.98;56.11;98592.25;5019508;28;20186;-59
2022/07/03 07:11:58;;;;;;;6.65;6.00;;;;;;;28.06;56.23;98594.72;5025455;28;20213;-59
2022/07/03 07:14:24;;;;;;;7.70;5.57;;;;;;;28.10;56.37;98601.22;5015922;28;20659;-58
2022/07/03 07:16:50;;;;;;;6.22;5.72;;;;;;;28.20;57.47;98595.44;5019877;28;20234;-58
2022/07/03 07:19:15;;;;;;;7.10;5.97;;;;;;;28.25;58.56;98588.47;5022323;28;20289;-58
2022/07/03 07:21:41;;;;;;;8.07;7.03;;;;;;;28.21;59.01;98586.47;5018072;28;20197;-58
2022/07/03 07:24:06;;;;;;;8.00;7.10;;;;;;;28.35;59.19;98596.81;5017111;28;20221;-58
2022/07/03 07:26:32;;;;;;;8.82;6.78;;;;;;;28.43;59.59;98585.94;5017732;28;20182;-59
2022/07/03 07:28:57;;;;;;;13.25;7.47;;;;;;;28.55;59.07;98589.56;5012856;28;21204;-59
2022/07/03 07:31:22;;;;;;;8.73;6.63;;;;;;;28.63;58.74;98586.63;5018605;28;20185;-59
2022/07/03 07:33:48;;;;;;;10.88;7.15;;;;;;;28.67;59.37;98587.84;5014935;28;20181;-59
2022/07/03 07:36:14;;;;;;;7.97;7.25;;;;;;;28.70;60.33;98574.13;5023480;28;20572;-59
2022/07/03 07:38:39;;;;;;;11.32;7.18;;;;;;;28.79;59.47;98575.47;5021551;28;20182;-59
2022/07/03 07:41:05;;;;;;;9.13;6.45;;;;;;;28.95;59.51;98590.09;5018655;28;20190;-59
2022/07/03 07:43:30;;;;;;;8.98;8.07;;;;;;;29.04;58.43;98588.84;4997134;28;20411;-59
2022/07/03 07:45:56;;;;;;;7.18;6.53;;;;;;;29.16;57.49;98597.75;4998656;28;20202;-60
2022/07/03 07:48:21;;;;;;;7.40;6.28;;;;;;;29.25;56.36;98585.75;5008898;28;20604;-59
2022/07/03 07:50:48;;;;;;;6.25;5.82;;;;;;;29.34;53.99;98592.47;5020978;28;20268;-59
2022/07/03 07:53:13;;;;;;;8.55;6.50;;;;;;;29.33;54.96;98588.97;5015753;28;20569;-59
2022/07/03 07:55:39;;;;;;;7.00;6.40;;;;;;;29.41;55.38;98594.03;5018057;28;20189;-59
2022/07/03 07:58:04;;;;;;;6.85;6.20;;;;;;;29.41;54.31;98596.72;5022055;28;20181;-59
2022/07/03 08:00:29;;;;;;;7.07;6.38;;;;;;;29.49;53.09;98583.06;5019346;28;20182;-59
2022/07/03 08:05:39;;;;;;;6.80;6.13;;;;;;;29.49;53.69;98577.75;5017144;28;20959;-60
2022/07/03 08:08:10;;;;;;;7.25;6.50;;;;;;;29.54;54.13;98588.59;5019157;28;20185;-60
2022/07/03 08:10:43;;;;;;;8.38;6.22;;;;;;;29.51;52.51;98581.00;5017728;28;20175;-59
2022/07/03 08:13:10;;;;;;;6.25;5.75;;;;;;;29.54;52.37;98575.28;5019401;28;20185;-58
2022/07/03 08:15:36;;;;;;;5.43;4.97;;;;;;;29.64;50.84;98575.56;5013250;28;20186;-58
2022/07/03 08:18:02;;;;;;;5.93;4.97;;;;;;;29.71;50.00;98586.16;5019429;28;20686;-58
2022/07/03 08:20:28;;;;;;;5.97;5.20;;;;;;;29.80;50.38;98590.97;5022240;28;20217;-60
2022/07/03 08:22:53;;;;;;;5.28;4.80;;;;;;;29.85;48.70;98590.34;5016355;28;20225;-58
2022/07/03 08:25:19;;;;;;;8.23;4.97;;;;;;;29.92;48.45;98596.41;4996035;28;20221;-58
2022/07/03 08:27:44;;;;;;;8.40;5.22;;;;;;;30.01;48.15;98589.72;4998409;28;20194;-59
2022/07/03 08:30:11;;;;;;;6.03;5.03;;;;;;;30.09;47.70;98587.59;5010529;28;20630;-59
2022/07/03 08:32:36;;;;;;;7.63;5.20;;;;;;;30.12;47.26;98600.50;5018255;28;20186;-58
2022/07/03 08:35:01;;;;;;;5.00;4.30;;;;;;;30.17;45.69;98603.31;5021098;28;20599;-59
2022/07/03 08:37:27;;;;;;;5.55;5.00;;;;;;;30.24;44.17;98601.38;5016812;28;20577;-59
2022/07/03 08:39:52;;;;;;;6.43;4.88;;;;;;;30.29;44.65;98596.16;5007445;28;20240;-59
2022/07/03 08:42:20;;;;;;;5.03;4.50;;;;;;;30.39;43.46;98604.47;5011400;28;20182;-60
2022/07/03 08:44:46;;;;;;;4.78;4.43;;;;;;;30.46;42.88;98605.19;5016071;28;20474;-59
2022/07/03 08:47:12;;;;;;;7.35;4.70;;;;;;;30.47;43.71;98596.13;5016034;28;20197;-59
2022/07/03 08:49:39;;;;;;;5.80;4.78;;;;;;;30.44;43.36;98593.91;5017882;28;20193;-59
2022/07/03 08:52:07;;;;;;;7.80;4.47;;;;;;;30.47;43.59;98587.28;5023168;28;20221;-59
2022/07/03 08:54:33;;;;;;;6.28;4.55;;;;;;;30.54;42.55;98590.72;5013292;28;20243;-59
2022/07/03 08:57:00;;;;;;;6.00;4.75;;;;;;;30.55;42.83;98593.13;5010885;28;20186;-58
2022/07/03 08:59:32;;;;;;;5.32;4.68;;;;;;;30.59;44.03;98591.63;5022212;28;20275;-58
2022/07/03 09:01:59;;;;;;;8.68;4.85;;;;;;;30.63;43.63;98598.16;5014424;28;20249;-58
2022/07/03 09:04:24;;;;;;;5.13;4.63;;;;;;;30.69;43.03;98596.47;5019705;28;20262;-59
2022/07/03 09:06:50;;;;;;;7.20;5.03;;;;;;;30.69;43.15;98591.94;4997234;28;20186;-58
2022/07/03 09:09:16;;;;;;;7.45;4.60;;;;;;;30.76;43.00;98592.66;4997154;28;20194;-60
2022/07/03 09:11:41;;;;;;;6.32;4.95;;;;;;;30.81;42.60;98595.47;5020361;28;20673;-60
2022/07/03 09:14:07;;;;;;;6.05;4.85;;;;;;;30.89;42.68;98597.00;5015669;28;20198;-58
2022/07/03 09:16:37;;;;;;;7.38;4.35;;;;;;;30.72;41.72;98583.44;5009486;28;20186;-60
2022/07/03 09:19:04;;;;;;;8.70;4.47;;;;;;;30.64;42.74;98586.47;5028151;28;20187;-60
2022/07/03 09:21:40;;;;;;;8.10;5.13;;;;;;;30.71;43.02;98600.53;5015784;28;20240;-58
2022/07/03 09:24:07;;;;;;;5.72;5.22;;;;;;;30.76;42.12;98592.66;5013876;28;20208;-58
2022/07/03 09:26:33;;;;;;;5.45;4.00;;;;;;;30.83;41.77;98593.38;5015113;28;20189;-58
2022/07/03 09:29:00;;;;;;;8.55;4.88;;;;;;;30.92;41.77;98593.84;5000155;28;20190;-58
2022/07/03 09:31:27;;;;;;;5.63;4.85;;;;;;;30.96;42.02;98587.00;5021350;28;20200;-58
2022/07/03 09:34:04;;;;;;;5.80;4.90;;;;;;;31.02;42.64;98584.22;5025785;28;20243;-59
2022/07/03 09:36:50;;;;;;;8.70;5.35;;;;;;;31.15;41.32;98591.22;5027956;28;20190;-59
2022/07/03 09:39:31;;;;;;;5.70;4.60;;;;;;;31.26;41.19;98593.94;5025200;28;20665;-59
2022/07/03 09:42:09;;;;;;;5.57;5.07;;;;;;;31.30;41.86;98584.38;5020664;28;20189;-59
2022/07/03 09:44:45;;;;;;;6.90;4.95;;;;;;;31.34;42.52;98582.06;5019960;28;20629;-60
2022/07/03 09:47:24;;;;;;;9.95;5.07;;;;;;;31.39;42.12;98583.00;5023166;28;20174;-58
2022/07/03 09:49:56;;;;;;;5.45;4.97;;;;;;;31.50;42.97;98581.34;5018630;28;20190;-58
2022/07/03 09:52:41;;;;;;;6.10;4.57;;;;;;;31.59;42.02;98575.41;5020414;28;20192;-58
2022/07/03 09:55:10;;;;;;;5.80;5.30;;;;;;;31.71;42.09;98581.56;5023632;28;20539;-59
2022/07/03 09:57:41;;;;;;;5.75;5.15;;;;;;;31.71;42.16;98578.88;5025722;28;20745;-58
2022/07/03 10:00:23;;;;;;;4.80;4.40;;;;;;;31.76;41.57;98580.91;5026777;28;20576;-58
2022/07/03 10:02:54;;;;;;;6.97;5.45;;;;;;;31.80;41.42;98580.19;5018210;28;20193;-58
2022/07/03 10:05:25;;;;;;;5.22;4.80;;;;;;;31.72;40.84;98577.88;5020730;28;20201;-58
2022/07/03 10:07:56;;;;;;;5.90;4.70;;;;;;;31.66;40.68;98568.06;5019595;28;20673;-58
2022/07/03 10:10:23;;;;;;;5.65;5.03;;;;;;;31.77;40.72;98577.19;5018504;28;20265;-58
2022/07/03 10:12:51;;;;;;;9.75;6.78;;;;;;;31.80;39.32;98574.84;5019793;28;20190;-58
2022/07/03 10:15:17;;;;;;;5.30;4.82;;;;;;;31.81;39.24;98565.75;5023046;28;20689;-58
2022/07/03 10:17:46;;;;;;;6.53;4.00;;;;;;;31.97;38.78;98570.38;5023755;28;20187;-58
2022/07/03 10:20:14;;;;;;;6.75;4.80;;;;;;;32.03;39.78;98568.59;5027279;28;20181;-58
2022/07/03 10:22:41;;;;;;;6.43;4.32;;;;;;;32.19;38.05;98567.88;5018915;28;20257;-59
2022/07/03 10:25:09;;;;;;;5.53;4.03;;;;;;;32.33;38.69;98566.53;5013281;28;21073;-58
2022/07/03 10:27:36;;;;;;;6.60;3.80;;;;;;;32.53;38.11;98561.56;5029310;28;20761;-58
2022/07/03 10:30:02;;;;;;;6.82;4.13;;;;;;;32.54;37.25;98560.53;5018342;28;20185;-59
2022/07/03 10:32:29;;;;;;;7.65;3.97;;;;;;;32.46;38.17;98559.03;5018484;28;20177;-59
2022/07/03 10:34:54;;;;;;;4.32;3.97;;;;;;;32.50;37.22;98560.19;5019990;28;20713;-59
2022/07/03 10:37:21;;;;;;;5.05;4.07;;;;;;;32.33;37.52;98559.34;5028098;28;20185;-58
2022/07/03 10:44:45;;;;;;;6.78;4.43;;;;;;;32.29;38.61;98558.19;5019365;28;20186;-58
2022/07/03 10:45:35;;;;;;;4.50;4.13;;;;;;;32.61;37.55;98556.63;5026448;28;20319;-59
2022/07/03 10:48:00;;;;;;;4.90;4.50;;;;;;;32.86;37.84;98553.59;5024725;28;20646;-59
2022/07/03 10:50:26;;;;;;;4.07;3.83;;;;;;;33.11;38.03;98560.16;5015733;28;20186;-59
2022/07/03 10:52:51;;;;;;;5.10;4.50;;;;;;;33.36;36.87;98560.59;4997902;28;20192;-59
2022/07/03 10:55:18;;;;;;;7.35;4.22;;;;;;;33.45;37.29;98553.72;5018969;28;20201;-59
2022/07/03 10:58:07;;;;;;;5.00;4.40;;;;;;;33.83;37.36;98551.06;5013977;28;20197;-59
2022/07/03 11:00:56;;;;;;;7.53;4.80;;;;;;;34.03;36.74;98545.94;5013423;28;20182;-59
2022/07/03 11:03:53;;;;;;;7.68;4.40;;;;;;;34.27;35.65;98543.81;5009694;28;20296;-59
2022/07/03 11:06:18;;;;;;;5.60;4.88;;;;;;;34.41;35.90;98540.47;5014501;28;20195;-59
2022/07/03 11:09:04;;;;;;;7.15;4.97;;;;;;;34.23;35.34;98537.28;5023208;28;20182;-59
2022/07/03 11:11:57;;;;;;;6.68;4.60;;;;;;;34.22;35.43;98523.03;5018922;28;20178;-59
2022/07/03 11:14:25;;;;;;;4.68;4.10;;;;;;;34.44;35.57;98523.03;5017190;28;20182;-59
2022/07/03 11:17:16;;;;;;;4.72;4.43;;;;;;;34.50;36.25;98508.56;5018423;28;20188;-59
2022/07/03 11:19:42;;;;;;;4.97;4.47;;;;;;;34.88;35.21;98532.56;5016917;28;20186;-59
2022/07/03 11:22:16;;;;;;;4.45;4.05;;;;;;;34.91;35.01;98530.19;5015254;28;20186;-60
2022/07/03 11:24:45;;;;;;;6.75;4.47;;;;;;;34.92;34.28;98528.31;5025506;28;20289;-60
2022/07/03 11:27:18;;;;;;;5.47;4.90;;;;;;;34.93;33.99;98528.06;5016949;28;20279;-59
2022/07/03 11:29:53;;;;;;;4.50;4.10;;;;;;;34.83;34.63;98516.41;5014168;28;20182;-60
2022/07/03 11:32:44;;;;;;;4.78;4.20;;;;;;;34.87;34.68;98504.88;5016619;28;20178;-59
2022/07/03 11:35:46;;;;;;;5.10;4.60;;;;;;;35.03;34.21;98497.72;5015495;28;20182;-59
2022/07/03 11:38:15;;;;;;;5.60;4.70;;;;;;;35.00;33.77;98477.53;5019195;28;20177;-59
2022/07/03 11:40:44;;;;;;;6.43;4.70;;;;;;;35.30;33.92;98514.59;5018352;28;20221;-60
2022/07/03 11:43:11;;;;;;;6.38;4.07;;;;;;;35.44;33.84;98505.78;5020672;28;20182;-59
2022/07/03 11:45:39;;;;;;;5.38;4.72;;;;;;;35.38;32.73;98509.53;5022910;28;20290;-59
2022/07/03 11:48:09;;;;;;;5.30;3.92;;;;;;;35.44;31.59;98516.56;5019939;28;20239;-59
2022/07/03 11:50:44;;;;;;;5.90;4.55;;;;;;;35.17;32.25;98507.78;5027032;28;20181;-59
2022/07/03 11:53:21;;;;;;;4.88;4.40;;;;;;;35.31;32.65;98506.28;5011538;28;20266;-60